createdAt,value
2018-05-10T00:03:22.999Z,18.00
2018-05-10T00:08:14.640Z,18.00
2018-05-10T00:13:06.275Z,18.00
2018-05-10T00:17:57.191Z,18.00
2018-05-10T00:22:48.859Z,18.00
2018-05-10T00:27:39.780Z,18.00
2018-05-10T00:32:30.670Z,18.00
2018-05-10T00:37:22.310Z,17.90
2018-05-10T00:42:13.219Z,17.90
2018-05-10T00:47:04.861Z,17.80
2018-05-10T00:51:56.497Z,17.80
2018-05-10T00:57:03.116Z,17.80
2018-05-10T01:01:53.995Z,17.80
2018-05-10T01:06:45.630Z,17.70
2018-05-10T01:11:37.247Z,17.70
2018-05-10T01:21:25.765Z,17.60
2018-05-10T01:26:17.402Z,17.60
2018-05-10T01:31:09.090Z,17.60
2018-05-10T01:36:11.216Z,17.60
2018-05-10T01:41:02.890Z,17.60
2018-05-10T01:45:53.800Z,17.60
2018-05-10T01:50:44.701Z,17.60
2018-05-10T01:55:35.686Z,17.60
2018-05-10T02:00:26.589Z,17.60
2018-05-10T02:05:17.493Z,17.60
2018-05-10T02:10:08.383Z,17.60
2018-05-10T02:15:00.042Z,17.60
2018-05-10T02:19:50.945Z,17.50
2018-05-10T02:24:41.855Z,17.60
2018-05-10T02:29:32.758Z,17.50
2018-05-10T02:34:23.649Z,17.60
2018-05-10T02:39:15.303Z,17.60
2018-05-10T02:44:06.200Z,17.50
2018-05-10T02:48:57.106Z,17.50
2018-05-10T02:53:48.039Z,17.60
2018-05-10T02:58:38.938Z,17.60
2018-05-10T03:03:29.882Z,17.60
2018-05-10T03:08:20.827Z,17.60
2018-05-10T03:13:12.480Z,17.60
2018-05-10T03:18:04.110Z,17.60
2018-05-10T03:22:55.911Z,17.50
2018-05-10T03:27:46.799Z,17.50
2018-05-10T03:32:37.690Z,17.50
2018-05-10T03:37:29.345Z,17.50
2018-05-10T03:42:20.245Z,17.50
2018-05-10T03:47:11.880Z,17.50
2018-05-10T03:52:03.540Z,17.50
2018-05-10T03:56:54.479Z,17.50
2018-05-10T04:01:45.455Z,17.40
2018-05-10T04:06:49.567Z,17.30
2018-05-10T04:11:40.498Z,17.30
2018-05-10T04:16:32.211Z,17.20
2018-05-10T04:21:23.204Z,17.20
2018-05-10T04:26:14.166Z,17.20
2018-05-10T04:31:05.853Z,17.10
2018-05-10T04:35:56.773Z,17.00
2018-05-10T04:40:47.702Z,17.00
2018-05-10T04:45:39.508Z,17.00
2018-05-10T04:50:30.412Z,16.90
2018-05-10T04:55:22.070Z,16.90
2018-05-10T05:00:12.947Z,16.90
2018-05-10T05:05:03.845Z,16.80
2018-05-10T05:09:54.745Z,16.90
2018-05-10T05:14:45.630Z,17.00
2018-05-10T05:19:37.272Z,17.10
2018-05-10T05:24:28.900Z,17.20
2018-05-10T05:29:20.536Z,17.20
2018-05-10T05:34:12.234Z,17.30
2018-05-10T05:39:03.123Z,17.30
2018-05-10T05:43:54.004Z,17.40
2018-05-10T05:48:45.655Z,17.60
2018-05-10T05:53:37.295Z,17.70
2018-05-10T05:58:28.998Z,17.80
2018-05-10T06:03:19.951Z,17.80
2018-05-10T06:08:11.584Z,18.00
2018-05-10T06:13:02.475Z,18.00
2018-05-10T06:17:54.156Z,18.20
2018-05-10T06:22:45.086Z,18.20
2018-05-10T06:27:35.997Z,18.30
2018-05-10T06:32:26.916Z,18.40
2018-05-10T06:37:17.848Z,18.50
2018-05-10T06:42:08.845Z,18.70
2018-05-10T06:46:59.728Z,18.80
2018-05-10T06:51:51.433Z,19.00
2018-05-10T06:56:42.353Z,19.00
2018-05-10T07:01:33.265Z,19.10
2018-05-10T07:06:24.159Z,19.20
2018-05-10T07:11:15.799Z,19.30
2018-05-10T07:16:07.691Z,19.30
2018-05-10T07:20:58.739Z,19.40
2018-05-10T07:25:50.389Z,19.80
2018-05-10T07:30:41.430Z,19.80
2018-05-10T07:35:32.360Z,20.10
2018-05-10T07:40:23.302Z,20.30
2018-05-10T07:45:14.232Z,20.50
2018-05-10T07:50:05.180Z,20.70
2018-05-10T07:54:56.082Z,20.90
2018-05-10T07:59:47.776Z,21.30
2018-05-10T08:04:38.828Z,21.30
2018-05-10T08:09:30.550Z,21.70
2018-05-10T08:14:21.450Z,21.70
2018-05-10T08:19:13.103Z,21.90
2018-05-10T08:24:04.107Z,21.90
2018-05-10T08:28:55.751Z,22.10
2018-05-10T08:33:46.639Z,22.10
2018-05-10T08:38:37.529Z,22.20
2018-05-10T08:43:28.449Z,22.30
2018-05-10T08:48:19.335Z,22.30
2018-05-10T08:53:10.266Z,22.40
2018-05-10T08:58:01.918Z,22.40
2018-05-10T09:02:52.905Z,22.40
2018-05-10T09:07:44.562Z,22.60
2018-05-10T09:12:35.477Z,22.50
2018-05-10T09:17:27.137Z,22.60
2018-05-10T09:22:18.776Z,22.70
2018-05-10T09:27:09.695Z,22.70
2018-05-10T09:32:00.611Z,22.80
2018-05-10T09:36:52.309Z,22.90
2018-05-10T09:41:43.302Z,22.90
2018-05-10T09:46:34.222Z,23.00
2018-05-10T09:51:25.134Z,23.10
2018-05-10T09:56:16.088Z,23.30
2018-05-10T10:01:07.036Z,23.40
2018-05-10T10:05:57.919Z,23.50
2018-05-10T10:10:48.856Z,23.60
2018-05-10T10:15:39.813Z,23.70
2018-05-10T10:20:30.651Z,23.80
2018-05-10T10:25:22.302Z,24.10
2018-05-10T10:30:13.962Z,24.20
2018-05-10T10:35:04.853Z,24.20
2018-05-10T10:39:56.543Z,24.60
2018-05-10T10:44:47.436Z,24.50
2018-05-10T10:49:38.331Z,24.80
2018-05-10T10:54:31.057Z,25.10
2018-05-10T10:59:21.961Z,25.10
2018-05-10T11:04:12.894Z,25.30
2018-05-10T11:09:03.835Z,25.50
2018-05-10T11:13:54.703Z,25.60
2018-05-10T11:18:45.596Z,25.70
2018-05-10T11:23:36.520Z,25.70
2018-05-10T11:28:27.436Z,25.90
2018-05-10T11:33:18.392Z,26.10
2018-05-10T11:38:09.257Z,26.30
2018-05-10T11:43:00.892Z,26.60
2018-05-10T11:47:52.540Z,26.80
2018-05-10T11:52:43.446Z,26.80
2018-05-10T11:57:35.077Z,27.40
2018-05-10T12:02:26.735Z,27.70
2018-05-10T12:07:18.349Z,27.90
2018-05-10T12:12:09.990Z,28.10
2018-05-10T12:17:01.628Z,28.40
2018-05-10T12:21:52.534Z,28.30
2018-05-10T12:26:44.155Z,28.70
2018-05-10T12:31:35.036Z,28.70
2018-05-10T12:36:25.930Z,28.80
2018-05-10T12:41:16.831Z,29.00
2018-05-10T12:46:07.742Z,29.10
2018-05-10T12:50:59.384Z,29.30
2018-05-10T12:55:51.004Z,29.40
2018-05-10T13:00:42.672Z,29.60
2018-05-10T13:05:33.574Z,29.50
2018-05-10T13:10:25.208Z,29.80
2018-05-10T13:15:16.917Z,29.90
2018-05-10T13:20:07.759Z,29.90
2018-05-10T13:24:59.414Z,30.00
2018-05-10T13:29:50.330Z,30.00
2018-05-10T13:34:41.296Z,29.90
2018-05-10T13:39:32.212Z,29.90
2018-05-10T13:44:23.113Z,29.80
2018-05-10T13:49:14.007Z,29.70
2018-05-10T13:54:04.887Z,29.50
2018-05-10T13:58:55.832Z,29.30
2018-05-10T14:03:46.687Z,29.00
2018-05-10T14:08:37.574Z,28.80
2018-05-10T14:13:28.465Z,28.60
2018-05-10T14:18:20.110Z,28.40
2018-05-10T14:23:11.750Z,28.40
2018-05-10T14:28:03.445Z,28.30
2018-05-10T14:32:54.390Z,28.30
2018-05-10T14:37:46.761Z,28.00
2018-05-10T14:42:38.426Z,27.90
2018-05-10T14:47:29.373Z,27.90
2018-05-10T14:52:20.286Z,27.70
2018-05-10T14:57:11.202Z,27.60
2018-05-10T15:02:02.095Z,27.40
2018-05-10T15:06:53.097Z,27.20
2018-05-10T15:11:44.005Z,26.90
2018-05-10T15:16:35.642Z,26.50
2018-05-10T15:21:27.280Z,26.30
2018-05-10T15:26:18.915Z,26.10
2018-05-10T15:31:10.556Z,25.90
2018-05-10T15:36:02.200Z,25.70
2018-05-10T15:40:53.109Z,25.70
2018-05-10T15:45:44.779Z,25.50
2018-05-10T15:50:35.743Z,25.40
2018-05-10T15:55:26.706Z,25.30
2018-05-10T16:00:17.618Z,25.20
2018-05-10T16:05:08.530Z,25.00
2018-05-10T16:09:59.437Z,24.90
2018-05-10T16:14:51.100Z,24.70
2018-05-10T16:19:41.997Z,24.60
2018-05-10T16:24:32.905Z,24.50
2018-05-10T16:29:24.557Z,24.10
2018-05-10T16:34:15.473Z,24.10
2018-05-10T16:39:06.401Z,23.90
2018-05-10T16:43:57.322Z,23.70
2018-05-10T16:48:48.228Z,23.50
2018-05-10T16:53:39.121Z,23.20
2018-05-10T16:58:30.025Z,23.00
2018-05-10T17:03:21.039Z,22.80
2018-05-10T17:08:11.949Z,22.60
2018-05-10T17:13:02.858Z,22.40
2018-05-10T17:17:53.752Z,22.20
2018-05-10T17:22:44.653Z,22.10
2018-05-10T17:27:36.357Z,21.80
2018-05-10T17:32:27.270Z,21.80
2018-05-10T17:37:18.172Z,21.70
2018-05-10T17:42:09.051Z,21.60
2018-05-10T17:46:59.936Z,21.50
2018-05-10T17:51:50.826Z,21.50
2018-05-10T17:56:41.718Z,21.40
2018-05-10T18:01:32.616Z,21.30
2018-05-10T18:06:24.299Z,21.10
2018-05-10T18:11:15.192Z,21.10
2018-05-10T18:16:06.135Z,21.00
2018-05-10T18:20:57.060Z,20.80
2018-05-10T18:25:47.949Z,20.70
2018-05-10T18:30:39.599Z,20.50
2018-05-10T18:35:30.586Z,20.40
2018-05-10T18:40:21.494Z,20.40
2018-05-10T18:45:12.395Z,20.30
2018-05-10T18:50:03.284Z,20.20
2018-05-10T18:54:54.337Z,20.10
2018-05-10T18:59:45.129Z,20.00
2018-05-10T19:04:36.024Z,19.90
2018-05-10T19:09:27.684Z,19.80
2018-05-10T19:14:18.583Z,19.70
2018-05-10T19:19:10.211Z,19.60
2018-05-10T19:24:01.920Z,19.60
2018-05-10T19:28:52.817Z,19.50
2018-05-10T19:33:43.740Z,19.50
2018-05-10T19:38:34.641Z,19.40
2018-05-10T19:43:25.535Z,19.30
2018-05-10T19:48:16.437Z,19.30
2018-05-10T19:53:08.090Z,19.10
2018-05-10T19:57:58.989Z,19.10
2018-05-10T20:02:50.630Z,18.90
2018-05-10T20:07:42.324Z,18.90
2018-05-10T20:12:33.199Z,18.90
2018-05-10T20:17:24.884Z,18.80
2018-05-10T20:22:15.912Z,18.80
2018-05-10T20:27:06.829Z,18.80
2018-05-10T20:31:57.752Z,18.70
2018-05-10T20:36:48.640Z,18.60
2018-05-10T20:41:39.668Z,18.50
2018-05-10T20:46:30.487Z,18.50
2018-05-10T20:51:21.419Z,18.40
2018-05-10T20:56:12.311Z,18.30
2018-05-10T21:01:03.195Z,18.30
2018-05-10T21:05:54.095Z,18.20
2018-05-10T21:10:44.972Z,18.10
2018-05-10T21:15:42.195Z,18.00
2018-05-10T21:20:33.147Z,18.00
2018-05-10T21:25:24.784Z,17.80
2018-05-10T21:30:15.677Z,17.80
2018-05-10T21:35:07.312Z,17.70
2018-05-10T21:39:58.963Z,17.60
2018-05-10T21:44:50.765Z,17.60
2018-05-10T21:49:54.068Z,17.50
2018-05-10T21:54:45.063Z,17.50
2018-05-10T21:59:35.971Z,17.40
2018-05-10T22:04:26.882Z,17.40
2018-05-10T22:09:18.585Z,17.20
2018-05-10T22:14:09.498Z,17.20
2018-05-10T22:19:00.399Z,17.20
2018-05-10T22:23:51.306Z,17.10
2018-05-10T22:28:42.204Z,17.00
2018-05-10T22:33:33.116Z,17.00
2018-05-10T22:38:24.021Z,16.90
2018-05-10T22:43:15.673Z,16.90
2018-05-10T22:48:06.755Z,16.80
2018-05-10T22:52:57.596Z,16.80
2018-05-10T22:57:49.219Z,16.70
2018-05-10T23:02:40.925Z,16.80
2018-05-10T23:07:31.804Z,16.70
2018-05-10T23:12:22.717Z,16.70
2018-05-10T23:17:13.619Z,16.70
2018-05-10T23:22:05.286Z,16.60
2018-05-10T23:26:56.246Z,16.60
2018-05-10T23:31:47.150Z,16.60
2018-05-10T23:36:38.051Z,16.60
2018-05-10T23:41:28.949Z,16.50
2018-05-10T23:46:19.851Z,16.50
2018-05-10T23:51:11.502Z,16.40
2018-05-10T23:56:02.464Z,16.40
